createdAt,value
2023-05-19T00:00:35.178Z,68.68
2023-05-19T00:03:01.384Z,68.67
2023-05-19T00:05:27.611Z,69.40
2023-05-19T00:07:53.768Z,70.58
2023-05-19T00:10:19.942Z,71.08
2023-05-19T00:12:46.120Z,72.76
2023-05-19T00:15:12.250Z,72.05
2023-05-19T00:17:38.484Z,71.49
2023-05-19T00:20:04.672Z,70.08
2023-05-19T00:22:30.808Z,70.56
2023-05-19T00:24:56.939Z,69.88
2023-05-19T00:27:23.077Z,69.93
2023-05-19T00:29:49.234Z,70.00
2023-05-19T00:32:15.418Z,69.27
2023-05-19T00:34:41.568Z,69.40
2023-05-19T00:37:07.752Z,68.83
2023-05-19T00:39:33.916Z,68.96
2023-05-19T00:42:00.090Z,68.52
2023-05-19T00:44:26.266Z,68.30
2023-05-19T00:46:52.474Z,68.09
2023-05-19T00:49:18.694Z,69.37
2023-05-19T00:51:44.824Z,68.93
2023-05-19T00:54:10.982Z,71.28
2023-05-19T00:56:37.144Z,70.80
2023-05-19T00:59:03.305Z,71.10
2023-05-19T01:01:29.548Z,70.39
2023-05-19T01:03:55.998Z,69.59
2023-05-19T01:06:22.300Z,69.61
2023-05-19T01:08:48.503Z,69.41
2023-05-19T01:11:14.647Z,69.67
2023-05-19T01:13:42.256Z,69.36
2023-05-19T01:16:08.589Z,68.85
2023-05-19T01:18:34.758Z,69.69
2023-05-19T01:21:00.928Z,69.60
2023-05-19T01:23:27.118Z,68.84
2023-05-19T01:25:53.267Z,68.78
2023-05-19T01:28:19.458Z,69.17
2023-05-19T01:30:45.604Z,69.07
2023-05-19T01:33:11.845Z,68.69
2023-05-19T01:35:38.036Z,68.06
2023-05-19T01:38:04.188Z,68.64
2023-05-19T01:40:30.541Z,68.50
2023-05-19T01:42:57.709Z,68.39
2023-05-19T01:45:24.141Z,68.29
2023-05-19T01:47:50.322Z,68.59
2023-05-19T01:50:16.470Z,68.77
2023-05-19T01:52:42.625Z,68.35
2023-05-19T01:55:08.794Z,68.33
2023-05-19T01:57:34.957Z,68.08
2023-05-19T02:00:01.091Z,68.09
2023-05-19T02:02:27.261Z,68.19
2023-05-19T02:04:53.438Z,68.40
2023-05-19T02:07:19.598Z,67.95
2023-05-19T02:09:45.747Z,68.11
2023-05-19T02:12:11.893Z,68.19
2023-05-19T02:14:38.033Z,68.33
2023-05-19T02:17:04.187Z,67.85
2023-05-19T02:19:30.359Z,68.52
2023-05-19T02:21:56.525Z,69.53
2023-05-19T02:24:22.733Z,69.91
2023-05-19T02:26:48.887Z,70.61
2023-05-19T02:29:15.048Z,72.25
2023-05-19T02:31:41.240Z,70.71
2023-05-19T02:34:07.414Z,69.40
2023-05-19T02:36:33.572Z,70.02
2023-05-19T02:38:59.708Z,70.19
2023-05-19T02:41:25.837Z,68.68
2023-05-19T02:43:52.017Z,69.05
2023-05-19T02:46:18.229Z,68.54
2023-05-19T02:48:44.431Z,68.67
2023-05-19T02:51:11.650Z,68.47
2023-05-19T02:53:37.817Z,68.44
2023-05-19T02:56:03.948Z,68.45
2023-05-19T02:58:30.084Z,68.67
2023-05-19T03:00:56.237Z,68.84
2023-05-19T03:03:22.454Z,69.83
2023-05-19T03:05:48.644Z,69.31
2023-05-19T03:08:14.797Z,69.47
2023-05-19T03:10:40.948Z,69.60
2023-05-19T03:13:07.129Z,68.21
2023-05-19T03:15:33.294Z,68.92
2023-05-19T03:17:59.543Z,69.36
2023-05-19T03:20:25.706Z,69.12
2023-05-19T03:22:51.862Z,68.75
2023-05-19T03:25:18.006Z,68.78
2023-05-19T03:27:44.151Z,68.69
2023-05-19T03:30:10.311Z,68.81
2023-05-19T03:32:36.565Z,68.49
2023-05-19T03:35:02.770Z,68.11
2023-05-19T03:37:28.969Z,68.06
2023-05-19T03:39:55.152Z,68.02
2023-05-19T03:42:21.313Z,68.63
2023-05-19T03:44:47.492Z,68.79
2023-05-19T03:47:13.635Z,69.13
2023-05-19T03:49:39.790Z,67.82
2023-05-19T03:52:05.912Z,68.23
2023-05-19T03:54:32.069Z,67.97
2023-05-19T03:56:58.219Z,68.15
2023-05-19T03:59:24.354Z,68.09
2023-05-19T04:01:50.523Z,67.87
2023-05-19T04:04:16.680Z,68.37
2023-05-19T04:06:42.852Z,68.14
2023-05-19T04:09:09.000Z,67.48
2023-05-19T04:11:35.149Z,69.45
2023-05-19T04:14:01.298Z,71.62
2023-05-19T04:16:27.563Z,71.83
2023-05-19T04:18:53.793Z,74.45
2023-05-19T04:21:19.964Z,73.27
2023-05-19T04:23:46.112Z,73.03
2023-05-19T04:26:12.318Z,73.09
2023-05-19T04:28:38.504Z,71.32
2023-05-19T04:31:04.724Z,71.52
2023-05-19T04:33:30.907Z,71.20
2023-05-19T04:35:57.088Z,69.72
2023-05-19T04:38:23.231Z,69.11
2023-05-19T04:40:49.469Z,68.40
2023-05-19T04:43:15.598Z,68.28
2023-05-19T04:45:41.757Z,67.83
2023-05-19T04:48:07.963Z,67.51
2023-05-19T04:50:34.517Z,67.71
2023-05-19T04:53:00.802Z,67.47
2023-05-19T04:55:26.938Z,66.76
2023-05-19T04:57:53.086Z,66.99
2023-05-19T05:00:19.227Z,66.71
2023-05-19T05:02:45.479Z,66.62
2023-05-19T05:05:11.812Z,66.63
2023-05-19T05:07:38.012Z,66.69
2023-05-19T05:10:04.157Z,65.94
2023-05-19T05:12:30.785Z,65.08
2023-05-19T05:14:56.958Z,66.30
2023-05-19T05:17:23.122Z,66.88
2023-05-19T05:19:49.291Z,66.86
2023-05-19T05:22:15.451Z,66.34
2023-05-19T05:24:41.638Z,65.88
2023-05-19T05:27:07.796Z,66.24
2023-05-19T05:29:33.949Z,65.71
2023-05-19T05:32:00.177Z,65.53
2023-05-19T05:34:26.377Z,64.60
2023-05-19T05:36:52.520Z,64.87
2023-05-19T05:39:18.684Z,64.94
2023-05-19T05:41:44.831Z,65.08
2023-05-19T05:44:10.984Z,64.18
2023-05-19T05:46:37.160Z,64.38
2023-05-19T05:49:03.360Z,63.39
2023-05-19T05:51:29.507Z,62.96
2023-05-19T05:53:55.677Z,63.48
2023-05-19T05:56:21.843Z,64.23
2023-05-19T05:58:47.995Z,63.62
2023-05-19T06:01:14.157Z,63.79
2023-05-19T06:03:40.388Z,62.16
2023-05-19T06:06:06.552Z,62.79
2023-05-19T06:08:32.716Z,62.51
2023-05-19T06:10:58.877Z,61.57
2023-05-19T06:13:25.037Z,60.83
2023-05-19T06:15:51.237Z,59.98
2023-05-19T06:18:17.431Z,59.66
2023-05-19T06:20:43.586Z,60.03
2023-05-19T06:23:09.755Z,61.08
2023-05-19T06:25:35.891Z,60.69
2023-05-19T06:28:02.173Z,60.37
2023-05-19T06:30:28.326Z,60.40
2023-05-19T06:32:54.486Z,60.66
2023-05-19T06:35:20.668Z,58.68
2023-05-19T06:37:46.825Z,59.06
2023-05-19T06:40:12.987Z,58.54
2023-05-19T06:42:39.128Z,59.73
2023-05-19T06:45:05.293Z,59.53
2023-05-19T06:47:31.454Z,62.89
2023-05-19T06:49:57.932Z,64.65
2023-05-19T06:52:24.066Z,65.73
2023-05-19T06:54:50.358Z,65.09
2023-05-19T06:57:16.522Z,65.83
2023-05-19T06:59:42.662Z,67.26
2023-05-19T07:02:08.893Z,67.40
2023-05-19T07:04:35.161Z,68.34
2023-05-19T07:07:01.321Z,68.49
2023-05-19T07:09:27.800Z,68.88
2023-05-19T07:11:53.956Z,68.25
2023-05-19T07:14:20.086Z,68.49
2023-05-19T07:16:46.308Z,69.53
2023-05-19T07:19:12.666Z,70.12
2023-05-19T07:21:38.846Z,70.53
2023-05-19T07:24:05.005Z,70.29
2023-05-19T07:26:31.142Z,68.49
2023-05-19T07:28:57.312Z,70.55
2023-05-19T07:31:23.555Z,71.42
2023-05-19T07:33:50.735Z,68.87
2023-05-19T07:36:17.797Z,65.85
2023-05-19T07:38:43.987Z,65.02
2023-05-19T07:41:10.217Z,62.05
2023-05-19T07:43:36.365Z,63.31
2023-05-19T07:46:02.585Z,60.89
2023-05-19T07:48:28.737Z,59.78
2023-05-19T07:50:54.900Z,59.87
2023-05-19T07:53:21.263Z,57.58
2023-05-19T07:55:47.506Z,58.01
2023-05-19T07:58:13.648Z,55.82
2023-05-19T08:00:39.774Z,57.63
2023-05-19T08:03:06.097Z,57.41
2023-05-19T08:05:32.437Z,60.88
2023-05-19T08:07:58.577Z,59.93
2023-05-19T08:10:24.809Z,58.24
2023-05-19T08:12:51.034Z,59.62
2023-05-19T08:15:17.191Z,60.27
2023-05-19T08:17:43.397Z,59.46
2023-05-19T08:20:09.619Z,58.43
2023-05-19T08:22:35.766Z,59.56
2023-05-19T08:25:01.933Z,56.94
2023-05-19T08:27:28.086Z,55.49
2023-05-19T08:29:54.235Z,54.54
2023-05-19T08:32:20.389Z,56.53
2023-05-19T08:34:46.526Z,54.90
2023-05-19T08:37:12.685Z,57.96
2023-05-19T08:39:38.819Z,56.85
2023-05-19T08:42:04.946Z,57.11
2023-05-19T08:44:31.175Z,53.76
2023-05-19T08:46:57.386Z,53.10
2023-05-19T08:49:25.493Z,51.70
2023-05-19T08:51:51.868Z,52.26
2023-05-19T08:54:18.017Z,52.61
2023-05-19T08:56:44.201Z,52.67
2023-05-19T08:59:10.337Z,52.32
2023-05-19T09:04:03.720Z,50.13
2023-05-19T09:06:30.123Z,51.13
2023-05-19T09:08:56.287Z,52.02
2023-05-19T09:11:22.814Z,48.92
2023-05-19T09:13:48.995Z,49.13
2023-05-19T09:16:15.160Z,49.98
2023-05-19T09:18:41.367Z,48.89
2023-05-19T09:21:07.596Z,48.72
2023-05-19T09:23:33.887Z,46.90
2023-05-19T09:26:00.099Z,48.13
2023-05-19T09:28:26.290Z,47.96
2023-05-19T09:30:52.440Z,46.79
2023-05-19T09:33:18.635Z,45.13
2023-05-19T09:35:44.839Z,46.50
2023-05-19T09:38:10.991Z,45.85
2023-05-19T09:40:37.124Z,45.26
2023-05-19T09:43:03.285Z,42.59
2023-05-19T09:45:29.466Z,42.88
2023-05-19T09:47:55.658Z,42.02
2023-05-19T09:50:21.828Z,43.65
2023-05-19T09:52:48.253Z,43.86
2023-05-19T09:55:14.425Z,43.06
2023-05-19T09:57:40.594Z,44.95
2023-05-19T10:00:06.738Z,46.14
2023-05-19T10:02:32.893Z,44.55
2023-05-19T10:04:59.085Z,45.37
2023-05-19T10:07:25.250Z,44.77
2023-05-19T10:09:51.446Z,46.43
2023-05-19T10:12:17.607Z,44.97
2023-05-19T10:14:43.893Z,45.34
2023-05-19T10:17:10.057Z,46.46
2023-05-19T10:19:36.230Z,45.74
2023-05-19T10:22:02.447Z,45.65
2023-05-19T10:24:28.610Z,46.33
2023-05-19T10:26:54.758Z,46.60
2023-05-19T10:29:20.918Z,44.91
2023-05-19T10:31:47.133Z,47.92
2023-05-19T10:34:13.303Z,46.58
2023-05-19T10:36:39.449Z,46.78
2023-05-19T10:39:05.633Z,46.95
2023-05-19T10:41:31.788Z,46.78
2023-05-19T10:43:58.541Z,46.50
2023-05-19T10:46:24.750Z,47.08
2023-05-19T10:48:50.962Z,48.53
2023-05-19T10:51:17.271Z,49.62
2023-05-19T10:53:43.537Z,48.37
2023-05-19T10:56:09.677Z,45.93
2023-05-19T10:58:35.843Z,47.55
2023-05-19T11:01:02.024Z,48.05
2023-05-19T11:03:28.182Z,46.61
2023-05-19T11:05:54.368Z,47.74
2023-05-19T11:08:20.500Z,46.54
2023-05-19T11:10:46.684Z,48.13
2023-05-19T11:13:12.839Z,47.78
2023-05-19T11:15:38.978Z,46.24
2023-05-19T11:18:05.328Z,45.33
2023-05-19T11:20:31.512Z,46.55
2023-05-19T11:22:57.683Z,47.10
2023-05-19T11:25:23.872Z,47.08
2023-05-19T11:27:50.012Z,47.94
2023-05-19T11:30:16.169Z,47.58
2023-05-19T11:32:42.387Z,48.13
2023-05-19T11:35:08.557Z,48.76
2023-05-19T11:37:34.748Z,45.67
2023-05-19T11:40:00.986Z,45.08
2023-05-19T11:42:27.440Z,43.09
2023-05-19T11:44:53.587Z,44.36
2023-05-19T11:47:19.726Z,42.77
2023-05-19T11:49:45.882Z,44.46
2023-05-19T11:52:12.104Z,44.99
2023-05-19T11:54:38.240Z,43.88
2023-05-19T11:57:04.396Z,45.88
2023-05-19T11:59:30.958Z,44.42
2023-05-19T12:01:57.565Z,45.79
2023-05-19T12:04:23.717Z,43.92
2023-05-19T12:06:49.904Z,45.28
2023-05-19T12:09:16.068Z,43.70
2023-05-19T12:11:42.321Z,44.33
2023-05-19T12:14:08.502Z,44.25
2023-05-19T12:16:34.780Z,44.78
2023-05-19T12:19:01.032Z,43.60
2023-05-19T12:21:33.636Z,43.31
2023-05-19T12:24:00.496Z,47.25
2023-05-19T12:26:26.655Z,45.92
2023-05-19T12:28:52.821Z,45.15
2023-05-19T12:31:19.010Z,46.51
2023-05-19T12:33:45.154Z,45.27
2023-05-19T12:36:11.319Z,45.51
2023-05-19T12:38:37.480Z,46.64
2023-05-19T12:41:03.631Z,48.58
2023-05-19T12:43:29.808Z,50.19
2023-05-19T12:45:56.032Z,46.88
2023-05-19T12:48:22.199Z,50.19
2023-05-19T12:50:48.356Z,50.97
2023-05-19T12:53:14.620Z,50.22
2023-05-19T12:55:40.815Z,50.75
2023-05-19T12:58:06.973Z,50.04
2023-05-19T13:00:33.397Z,48.40
2023-05-19T13:03:00.257Z,49.32
2023-05-19T13:05:26.803Z,49.48
2023-05-19T13:07:53.000Z,47.26
2023-05-19T13:10:19.149Z,48.93
2023-05-19T13:12:45.304Z,49.38
2023-05-19T13:15:11.437Z,48.99
2023-05-19T13:17:37.625Z,50.42
2023-05-19T13:20:03.764Z,49.32
2023-05-19T13:22:29.921Z,50.26
2023-05-19T13:24:56.066Z,51.33
2023-05-19T13:27:22.230Z,54.26
2023-05-19T13:29:48.373Z,52.46
2023-05-19T13:32:14.523Z,51.31
2023-05-19T13:34:40.760Z,49.49
2023-05-19T13:37:07.665Z,47.68
2023-05-19T13:39:34.009Z,47.39
2023-05-19T13:42:00.209Z,46.60
2023-05-19T13:44:26.348Z,49.21
2023-05-19T13:46:52.548Z,45.87
2023-05-19T13:49:18.859Z,45.21
2023-05-19T13:51:45.008Z,43.09
2023-05-19T13:54:11.162Z,44.94
2023-05-19T13:56:37.304Z,47.25
2023-05-19T13:59:03.456Z,48.29
2023-05-19T14:01:29.632Z,47.37
2023-05-19T14:03:55.872Z,46.36
2023-05-19T14:06:22.171Z,46.49
2023-05-19T14:08:48.316Z,45.04
2023-05-19T14:11:14.491Z,45.20
2023-05-19T14:13:43.250Z,45.83
2023-05-19T14:16:09.684Z,45.96
2023-05-19T14:18:35.913Z,44.07
2023-05-19T14:21:02.062Z,43.89
2023-05-19T14:23:28.228Z,43.92
2023-05-19T14:25:54.381Z,44.38
2023-05-19T14:28:20.518Z,44.33
2023-05-19T14:30:47.244Z,42.79
2023-05-19T14:33:13.573Z,43.17
2023-05-19T14:35:39.795Z,45.48
2023-05-19T14:38:05.969Z,45.86
2023-05-19T14:40:32.228Z,45.56
2023-05-19T14:42:58.576Z,46.60
2023-05-19T14:45:24.717Z,45.13
2023-05-19T14:47:50.901Z,44.58
2023-05-19T14:50:17.074Z,43.89
2023-05-19T14:52:43.248Z,44.49
2023-05-19T14:55:11.554Z,45.21
2023-05-19T14:57:37.705Z,47.59
2023-05-19T15:00:03.856Z,47.91
2023-05-19T15:02:30.161Z,48.62
2023-05-19T15:04:56.397Z,49.68
2023-05-19T15:07:22.542Z,49.41
2023-05-19T15:09:48.670Z,49.33
2023-05-19T15:12:14.814Z,49.52
2023-05-19T15:14:40.972Z,48.32
2023-05-19T15:17:07.197Z,49.01
2023-05-19T15:19:33.504Z,51.56
2023-05-19T15:21:59.748Z,48.69
2023-05-19T15:24:25.889Z,49.45
2023-05-19T15:26:52.053Z,50.66
2023-05-19T15:29:18.224Z,49.42
2023-05-19T15:31:44.507Z,47.19
2023-05-19T15:34:10.770Z,49.25
2023-05-19T15:36:36.919Z,48.91
2023-05-19T15:39:03.084Z,48.28
2023-05-19T15:41:29.223Z,48.64
2023-05-19T15:43:55.371Z,50.38
2023-05-19T15:46:21.542Z,50.25
2023-05-19T15:48:47.845Z,51.69
2023-05-19T15:51:14.015Z,52.32
2023-05-19T15:53:40.157Z,52.23
2023-05-19T15:56:06.306Z,54.01
2023-05-19T15:58:32.474Z,54.77
2023-05-19T16:00:58.646Z,56.32
2023-05-19T16:03:24.883Z,55.58
2023-05-19T16:05:51.111Z,55.93
2023-05-19T16:08:17.339Z,56.26
2023-05-19T16:10:43.486Z,52.42
2023-05-19T16:13:09.677Z,52.25
2023-05-19T16:15:35.846Z,51.32
2023-05-19T16:18:02.009Z,51.66
2023-05-19T16:20:28.231Z,52.66
2023-05-19T16:22:54.419Z,54.04
2023-05-19T16:25:20.566Z,55.32
2023-05-19T16:27:46.728Z,56.13
2023-05-19T16:30:12.876Z,55.74
2023-05-19T16:32:39.075Z,55.35
2023-05-19T16:35:05.263Z,54.79
2023-05-19T16:37:31.540Z,55.25
2023-05-19T16:39:57.703Z,54.25
2023-05-19T16:42:23.840Z,54.63
2023-05-19T16:44:50.006Z,56.12
2023-05-19T16:47:16.144Z,56.46
2023-05-19T16:49:42.470Z,55.99
2023-05-19T16:52:08.602Z,55.42
2023-05-19T16:54:34.748Z,54.96
2023-05-19T16:57:00.932Z,54.23
2023-05-19T16:59:27.081Z,53.35
2023-05-19T17:01:53.250Z,52.31
2023-05-19T17:04:19.404Z,54.17
2023-05-19T17:06:45.563Z,53.94
2023-05-19T17:09:11.704Z,52.81
2023-05-19T17:11:37.854Z,53.71
2023-05-19T17:14:04.033Z,55.13
2023-05-19T17:16:30.197Z,54.70
2023-05-19T17:18:56.420Z,57.34
2023-05-19T17:21:22.600Z,58.69
2023-05-19T17:23:48.768Z,59.74
2023-05-19T17:26:14.941Z,58.70
2023-05-19T17:28:41.091Z,59.41
2023-05-19T17:31:07.233Z,60.40
2023-05-19T17:33:33.422Z,59.70
2023-05-19T17:35:59.578Z,63.33
2023-05-19T17:38:25.741Z,63.96
2023-05-19T17:40:51.877Z,65.00
2023-05-19T17:43:18.028Z,66.06
2023-05-19T17:45:44.190Z,67.71
2023-05-19T17:48:10.480Z,70.36
2023-05-19T17:50:36.670Z,71.72
2023-05-19T17:53:02.833Z,71.35
2023-05-19T17:55:28.995Z,71.77
2023-05-19T17:57:55.133Z,72.15
2023-05-19T18:00:21.276Z,71.65
2023-05-19T18:02:47.473Z,69.10
2023-05-19T18:05:13.672Z,69.79
2023-05-19T18:07:39.801Z,68.80
2023-05-19T18:10:06.005Z,68.10
2023-05-19T18:12:32.160Z,66.54
2023-05-19T18:14:58.285Z,66.35
2023-05-19T18:17:24.427Z,66.77
2023-05-19T18:19:50.594Z,67.17
2023-05-19T18:22:16.845Z,69.55
2023-05-19T18:24:43.007Z,68.24
2023-05-19T18:27:09.190Z,68.12
2023-05-19T18:29:35.361Z,68.53
2023-05-19T18:32:01.642Z,69.45
2023-05-19T18:34:27.838Z,69.23
2023-05-19T18:36:53.973Z,72.09
2023-05-19T18:39:20.112Z,71.93
2023-05-19T18:41:46.330Z,72.33
2023-05-19T18:44:12.482Z,70.92
2023-05-19T18:46:38.786Z,70.55
2023-05-19T18:49:04.954Z,72.87
2023-05-19T18:51:31.093Z,72.20
2023-05-19T18:53:57.219Z,71.75
2023-05-19T18:56:23.435Z,72.45
2023-05-19T18:58:49.576Z,70.47
2023-05-19T19:01:15.765Z,68.80
2023-05-19T19:03:41.975Z,69.81
2023-05-19T19:06:08.117Z,70.70
2023-05-19T19:08:34.264Z,71.66
2023-05-19T19:11:00.396Z,70.78
2023-05-19T19:13:26.531Z,68.85
2023-05-19T19:15:52.677Z,68.29
2023-05-19T19:18:18.818Z,67.96
2023-05-19T19:20:44.979Z,67.96
2023-05-19T19:23:11.155Z,67.58
2023-05-19T19:25:37.350Z,66.84
2023-05-19T19:28:03.488Z,65.86
2023-05-19T19:30:29.638Z,66.36
2023-05-19T19:32:55.800Z,66.68
2023-05-19T19:35:21.964Z,67.33
2023-05-19T19:37:48.255Z,67.17
2023-05-19T19:40:14.389Z,65.88
2023-05-19T19:42:40.536Z,65.27
2023-05-19T19:45:06.705Z,65.81
2023-05-19T19:47:32.902Z,66.42
2023-05-19T19:49:59.137Z,66.63
2023-05-19T19:52:25.295Z,66.19
2023-05-19T19:54:51.452Z,66.81
2023-05-19T19:57:17.594Z,67.04
2023-05-19T19:59:43.766Z,66.17
2023-05-19T20:02:10.109Z,68.22
2023-05-19T20:04:36.541Z,68.17
2023-05-19T20:07:02.759Z,66.10
2023-05-19T20:09:28.911Z,66.09
2023-05-19T20:11:55.043Z,65.84
2023-05-19T20:14:21.328Z,66.61
2023-05-19T20:16:47.494Z,66.64
2023-05-19T20:19:13.678Z,66.09
2023-05-19T20:21:39.893Z,65.80
2023-05-19T20:24:06.047Z,66.00
2023-05-19T20:26:32.251Z,67.04
2023-05-19T20:28:58.416Z,65.98
2023-05-19T20:31:24.706Z,66.37
2023-05-19T20:33:50.884Z,66.03
2023-05-19T20:36:17.037Z,66.32
2023-05-19T20:38:43.344Z,65.84
2023-05-19T20:41:09.520Z,66.00
2023-05-19T20:43:35.656Z,66.79
2023-05-19T20:46:01.842Z,66.19
2023-05-19T20:48:28.049Z,67.07
2023-05-19T20:50:54.254Z,69.81
2023-05-19T20:53:20.457Z,68.60
2023-05-19T20:55:46.611Z,71.15
2023-05-19T20:58:12.778Z,70.42
2023-05-19T21:00:38.921Z,70.49
2023-05-19T21:03:05.141Z,71.02
2023-05-19T21:05:31.449Z,69.57
2023-05-19T21:07:57.660Z,68.20
2023-05-19T21:10:23.805Z,67.97
2023-05-19T21:12:49.954Z,67.85
2023-05-19T21:15:16.124Z,67.46
2023-05-19T21:17:42.450Z,67.05
2023-05-19T21:20:08.676Z,67.82
2023-05-19T21:22:34.852Z,67.45
2023-05-19T21:25:00.987Z,67.21
2023-05-19T21:27:27.187Z,67.67
2023-05-19T21:29:53.335Z,66.86
2023-05-19T21:32:19.811Z,67.24
2023-05-19T21:34:46.003Z,66.80
2023-05-19T21:37:12.156Z,67.18
2023-05-19T21:39:38.337Z,67.72
2023-05-19T21:42:04.484Z,67.91
2023-05-19T21:44:30.630Z,67.14
2023-05-19T21:46:56.885Z,68.14
2023-05-19T21:49:23.068Z,66.97
2023-05-19T21:51:49.240Z,67.40
2023-05-19T21:54:15.386Z,67.42
2023-05-19T21:56:41.533Z,67.25
2023-05-19T21:59:07.712Z,66.38
2023-05-19T22:01:33.908Z,66.29
2023-05-19T22:04:00.254Z,66.61
2023-05-19T22:06:26.551Z,66.37
2023-05-19T22:08:52.719Z,66.46
2023-05-19T22:11:18.886Z,66.60
2023-05-19T22:13:45.047Z,66.56
2023-05-19T22:16:11.253Z,66.74
2023-05-19T22:18:37.411Z,66.53
2023-05-19T22:21:03.588Z,66.55
2023-05-19T22:23:29.810Z,66.02
2023-05-19T22:25:55.965Z,66.77
2023-05-19T22:28:22.184Z,66.29
2023-05-19T22:30:48.325Z,66.56
2023-05-19T22:33:14.450Z,66.21
2023-05-19T22:35:40.618Z,65.98
2023-05-19T22:38:08.867Z,66.24
2023-05-19T22:40:36.681Z,65.89
2023-05-19T22:43:02.998Z,66.67
2023-05-19T22:45:29.174Z,66.23
2023-05-19T22:47:55.443Z,66.16
2023-05-19T22:50:21.612Z,66.34
2023-05-19T22:52:47.845Z,66.35
2023-05-19T22:55:14.002Z,66.34
2023-05-19T22:57:40.147Z,66.56
2023-05-19T23:00:06.326Z,66.00
2023-05-19T23:02:32.516Z,66.19
2023-05-19T23:04:58.665Z,65.90
2023-05-19T23:07:24.809Z,66.35
2023-05-19T23:09:50.983Z,66.80
2023-05-19T23:12:17.116Z,66.29
2023-05-19T23:14:43.272Z,66.02
2023-05-19T23:17:09.456Z,66.73
2023-05-19T23:19:35.682Z,66.80
2023-05-19T23:22:01.810Z,66.40
2023-05-19T23:24:27.957Z,66.14
2023-05-19T23:26:54.106Z,65.80
2023-05-19T23:29:20.237Z,64.95
2023-05-19T23:31:46.460Z,65.45
2023-05-19T23:34:12.671Z,65.51
2023-05-19T23:36:38.840Z,66.49
2023-05-19T23:39:04.985Z,66.24
2023-05-19T23:41:31.136Z,66.47
2023-05-19T23:43:57.305Z,66.42
2023-05-19T23:46:23.567Z,66.86
2023-05-19T23:48:49.797Z,66.09
2023-05-19T23:51:15.947Z,66.09
2023-05-19T23:53:42.122Z,66.52
2023-05-19T23:56:08.291Z,66.68
2023-05-19T23:58:34.467Z,65.93
